Liberal Mid-America Regional Airport
KLBL : now visible

Airfield :











YOU CAN JOIN US ON...

 
LOGIN :

Register | Disclaimer

   EN    FR    IT 

 









Legend :    VFR   Marginal VFR   IFR   Intensive IFR   Very Intensive IFR
Visi :
Ceiling :
>= 8 km
>= 3000ft
5 to 8 km
1000 to 3000 ft
1500m to 5 km
500 to 1000 ft
800 to 1500m
200 to 500 ft
< 800m
< 200 ft
Symbols :   Thunderstorms  Fog  Heavy snow  Heavy precipitations  Wind > 20 kt






- Airport Elevation : 2885 ft
- IATA code : LBL


KLBL - Liberal Mid-America Regional

CURRENT METAR :
  • 281156Z AUTO 21007KT 10SM CLR M03/M05 A2973 RMK AO2 SLP084 T10331050 11006 21033 58019 FZRANO

EXPIRED METARs :
  • 281056Z AUTO 22007KT 10SM CLR M03/M05 A2975 RMK AO2 SLP087 T10331050 FZRANO
  • 280956Z AUTO 21007KT 10SM CLR M03/M05 A2977 RMK AO2 SLP090 T10281050 FZRANO

TAF KLBL
Valid from the 28 at 12:00 until the 29 at 12:00 UTC


281143Z 2812/2912 22008KT P6SM SKC
FM290300 23014KT P6SM BKN200
KZKC FIR / North America



MET'MAP, your aeronautical weather chart ! - Copyright ORBIFLY December 2007 - Disclaimer

ORBIFLY MET'MAP TEAM :

Programming & Development : Alexandra Zaïnal
Original concept : Baudouin d'Aumeries
Technical & hardware support : Manuel Goepfert
Assistance : Marc-Olivier Méhu




SOURCES & CREDITS :

   NOAA       Earth
Advisory